sensor_id;sensor_type;location;lat;lon;timestamp;temperature;humidity
17659;DHT22;8948;51.534;8.262;2024-01-30T00:02:32;9.50;68.70
17659;DHT22;8948;51.534;8.262;2024-01-30T00:07:32;9.40;68.40
17659;DHT22;8948;51.534;8.262;2024-01-30T00:12:33;9.40;68.80
17659;DHT22;8948;51.534;8.262;2024-01-30T00:17:33;9.30;68.60
17659;DHT22;8948;51.534;8.262;2024-01-30T00:22:34;9.20;67.90
17659;DHT22;8948;51.534;8.262;2024-01-30T00:27:34;9.20;69.10
17659;DHT22;8948;51.534;8.262;2024-01-30T00:32:35;9.10;69.50
17659;DHT22;8948;51.534;8.262;2024-01-30T00:37:36;9.20;69.10
17659;DHT22;8948;51.534;8.262;2024-01-30T00:42:36;9.20;69.00
17659;DHT22;8948;51.534;8.262;2024-01-30T00:47:37;9.10;69.40
17659;DHT22;8948;51.534;8.262;2024-01-30T00:52:37;9.10;69.20
17659;DHT22;8948;51.534;8.262;2024-01-30T00:57:39;9.20;68.90
17659;DHT22;8948;51.534;8.262;2024-01-30T01:02:40;9.20;69.00
17659;DHT22;8948;51.534;8.262;2024-01-30T01:07:40;9.20;68.70
17659;DHT22;8948;51.534;8.262;2024-01-30T01:12:43;9.20;68.70
17659;DHT22;8948;51.534;8.262;2024-01-30T01:17:44;9.10;69.40
17659;DHT22;8948;51.534;8.262;2024-01-30T01:22:44;9.20;68.60
17659;DHT22;8948;51.534;8.262;2024-01-30T01:27:45;9.10;69.10
17659;DHT22;8948;51.534;8.262;2024-01-30T01:32:51;9.10;69.20
17659;DHT22;8948;51.534;8.262;2024-01-30T01:38:01;9.10;69.30
17659;DHT22;8948;51.534;8.262;2024-01-30T01:43:03;9.00;69.10
17659;DHT22;8948;51.534;8.262;2024-01-30T01:48:06;9.00;69.00
17659;DHT22;8948;51.534;8.262;2024-01-30T01:53:08;9.00;69.30
17659;DHT22;8948;51.534;8.262;2024-01-30T01:58:09;9.00;69.30
17659;DHT22;8948;51.534;8.262;2024-01-30T02:03:14;9.00;69.00
17659;DHT22;8948;51.534;8.262;2024-01-30T02:08:17;8.90;69.10
17659;DHT22;8948;51.534;8.262;2024-01-30T02:13:18;8.90;68.70
17659;DHT22;8948;51.534;8.262;2024-01-30T02:18:20;8.80;69.40
17659;DHT22;8948;51.534;8.262;2024-01-30T02:23:24;8.80;69.80
17659;DHT22;8948;51.534;8.262;2024-01-30T02:28:27;8.80;69.80
17659;DHT22;8948;51.534;8.262;2024-01-30T02:33:28;8.70;69.60
17659;DHT22;8948;51.534;8.262;2024-01-30T02:38:28;8.80;69.80
17659;DHT22;8948;51.534;8.262;2024-01-30T02:43:29;8.80;69.60
17659;DHT22;8948;51.534;8.262;2024-01-30T02:48:29;8.70;70.10
17659;DHT22;8948;51.534;8.262;2024-01-30T02:53:30;8.70;69.70
17659;DHT22;8948;51.534;8.262;2024-01-30T02:58:30;8.70;69.90
17659;DHT22;8948;51.534;8.262;2024-01-30T03:03:31;8.70;69.50
17659;DHT22;8948;51.534;8.262;2024-01-30T03:08:32;8.70;69.20
17659;DHT22;8948;51.534;8.262;2024-01-30T03:13:32;8.70;70.30
17659;DHT22;8948;51.534;8.262;2024-01-30T03:18:33;8.70;70.00
17659;DHT22;8948;51.534;8.262;2024-01-30T03:23:33;8.70;70.10
17659;DHT22;8948;51.534;8.262;2024-01-30T03:28:34;8.70;70.20
17659;DHT22;8948;51.534;8.262;2024-01-30T03:33:36;8.80;69.60
17659;DHT22;8948;51.534;8.262;2024-01-30T03:38:37;8.80;69.80
17659;DHT22;8948;51.534;8.262;2024-01-30T03:43:38;8.80;70.10
17659;DHT22;8948;51.534;8.262;2024-01-30T03:48:39;8.80;69.40
17659;DHT22;8948;51.534;8.262;2024-01-30T03:53:42;8.80;70.30
17659;DHT22;8948;51.534;8.262;2024-01-30T03:58:43;8.80;70.10
17659;DHT22;8948;51.534;8.262;2024-01-30T04:03:44;8.80;69.90
17659;DHT22;8948;51.534;8.262;2024-01-30T04:08:44;8.80;70.40
17659;DHT22;8948;51.534;8.262;2024-01-30T04:13:45;8.90;69.90
17659;DHT22;8948;51.534;8.262;2024-01-30T04:18:48;8.90;70.40
17659;DHT22;8948;51.534;8.262;2024-01-30T04:23:50;8.90;70.20
17659;DHT22;8948;51.534;8.262;2024-01-30T04:28:51;8.90;70.20
17659;DHT22;8948;51.534;8.262;2024-01-30T04:33:51;8.90;70.10
17659;DHT22;8948;51.534;8.262;2024-01-30T04:38:52;8.90;70.30
17659;DHT22;8948;51.534;8.262;2024-01-30T04:43:52;8.80;70.30
17659;DHT22;8948;51.534;8.262;2024-01-30T04:48:53;8.80;69.40
17659;DHT22;8948;51.534;8.262;2024-01-30T04:53:53;8.80;70.30
17659;DHT22;8948;51.534;8.262;2024-01-30T04:58:54;8.80;70.60
17659;DHT22;8948;51.534;8.262;2024-01-30T05:03:54;8.80;69.70
17659;DHT22;8948;51.534;8.262;2024-01-30T05:08:55;8.80;69.60
17659;DHT22;8948;51.534;8.262;2024-01-30T05:13:56;8.80;70.30
17659;DHT22;8948;51.534;8.262;2024-01-30T05:18:56;8.70;70.70
17659;DHT22;8948;51.534;8.262;2024-01-30T05:23:57;8.80;70.30
17659;DHT22;8948;51.534;8.262;2024-01-30T05:28:57;8.80;71.00
17659;DHT22;8948;51.534;8.262;2024-01-30T05:33:58;8.90;70.60
17659;DHT22;8948;51.534;8.262;2024-01-30T05:38:59;8.80;70.50
17659;DHT22;8948;51.534;8.262;2024-01-30T05:43:59;8.80;70.70
17659;DHT22;8948;51.534;8.262;2024-01-30T05:49:00;9.00;72.20
17659;DHT22;8948;51.534;8.262;2024-01-30T05:54:00;9.10;70.00
17659;DHT22;8948;51.534;8.262;2024-01-30T05:59:03;9.20;69.90
17659;DHT22;8948;51.534;8.262;2024-01-30T06:04:04;9.20;70.00
17659;DHT22;8948;51.534;8.262;2024-01-30T06:09:05;9.10;69.80
17659;DHT22;8948;51.534;8.262;2024-01-30T06:14:05;9.10;70.10
17659;DHT22;8948;51.534;8.262;2024-01-30T06:19:06;9.00;70.00
17659;DHT22;8948;51.534;8.262;2024-01-30T06:24:06;9.00;70.40
17659;DHT22;8948;51.534;8.262;2024-01-30T06:29:07;8.90;70.20
17659;DHT22;8948;51.534;8.262;2024-01-30T06:34:11;8.90;70.60
17659;DHT22;8948;51.534;8.262;2024-01-30T06:39:12;8.90;70.60
17659;DHT22;8948;51.534;8.262;2024-01-30T06:44:12;8.90;70.50
17659;DHT22;8948;51.534;8.262;2024-01-30T06:49:13;8.80;70.70
17659;DHT22;8948;51.534;8.262;2024-01-30T06:54:14;8.90;70.30
17659;DHT22;8948;51.534;8.262;2024-01-30T06:59:14;8.90;70.30
17659;DHT22;8948;51.534;8.262;2024-01-30T07:04:15;8.90;70.70
17659;DHT22;8948;51.534;8.262;2024-01-30T07:09:16;8.80;70.70
17659;DHT22;8948;51.534;8.262;2024-01-30T07:14:17;8.80;70.30
17659;DHT22;8948;51.534;8.262;2024-01-30T07:19:18;8.70;70.20
17659;DHT22;8948;51.534;8.262;2024-01-30T07:24:18;8.70;70.50
17659;DHT22;8948;51.534;8.262;2024-01-30T07:29:19;8.70;71.50
17659;DHT22;8948;51.534;8.262;2024-01-30T07:34:19;8.90;70.90
17659;DHT22;8948;51.534;8.262;2024-01-30T07:39:20;9.00;70.30
17659;DHT22;8948;51.534;8.262;2024-01-30T07:44:21;9.10;70.50
17659;DHT22;8948;51.534;8.262;2024-01-30T07:49:22;9.20;70.40
17659;DHT22;8948;51.534;8.262;2024-01-30T07:54:22;9.40;70.40
17659;DHT22;8948;51.534;8.262;2024-01-30T08:05:21;9.50;69.90
17659;DHT22;8948;51.534;8.262;2024-01-30T08:10:25;9.60;69.60
17659;DHT22;8948;51.534;8.262;2024-01-30T08:15:25;9.70;69.30
17659;DHT22;8948;51.534;8.262;2024-01-30T08:20:26;9.80;69.70
17659;DHT22;8948;51.534;8.262;2024-01-30T08:25:26;10.00;69.50
17659;DHT22;8948;51.534;8.262;2024-01-30T08:30:27;10.10;69.20
17659;DHT22;8948;51.534;8.262;2024-01-30T08:35:27;10.10;68.90
17659;DHT22;8948;51.534;8.262;2024-01-30T08:40:29;10.20;68.50
17659;DHT22;8948;51.534;8.262;2024-01-30T08:45:31;10.30;68.80
17659;DHT22;8948;51.534;8.262;2024-01-30T08:50:31;10.50;68.40
17659;DHT22;8948;51.534;8.262;2024-01-30T08:55:32;10.60;68.20
17659;DHT22;8948;51.534;8.262;2024-01-30T09:00:32;10.60;68.30
17659;DHT22;8948;51.534;8.262;2024-01-30T09:05:33;10.70;68.40
17659;DHT22;8948;51.534;8.262;2024-01-30T09:10:33;10.80;68.00
17659;DHT22;8948;51.534;8.262;2024-01-30T09:15:34;10.90;67.90
17659;DHT22;8948;51.534;8.262;2024-01-30T09:20:35;11.00;67.20
17659;DHT22;8948;51.534;8.262;2024-01-30T09:25:36;11.10;67.40
17659;DHT22;8948;51.534;8.262;2024-01-30T09:30:36;11.30;67.70
17659;DHT22;8948;51.534;8.262;2024-01-30T09:35:37;11.40;68.20
17659;DHT22;8948;51.534;8.262;2024-01-30T09:40:37;11.50;67.70
17659;DHT22;8948;51.534;8.262;2024-01-30T09:45:39;11.50;66.80
17659;DHT22;8948;51.534;8.262;2024-01-30T09:50:42;11.50;67.10
17659;DHT22;8948;51.534;8.262;2024-01-30T09:55:43;11.50;67.70
17659;DHT22;8948;51.534;8.262;2024-01-30T10:00:44;11.50;67.80
17659;DHT22;8948;51.534;8.262;2024-01-30T10:05:51;11.60;67.20
17659;DHT22;8948;51.534;8.262;2024-01-30T10:10:53;11.60;67.60
17659;DHT22;8948;51.534;8.262;2024-01-30T10:15:53;11.80;67.00
17659;DHT22;8948;51.534;8.262;2024-01-30T10:20:55;11.80;67.10
17659;DHT22;8948;51.534;8.262;2024-01-30T10:25:56;11.80;67.70
17659;DHT22;8948;51.534;8.262;2024-01-30T10:31:00;11.90;67.50
17659;DHT22;8948;51.534;8.262;2024-01-30T10:36:02;12.00;66.10
17659;DHT22;8948;51.534;8.262;2024-01-30T10:41:03;12.20;65.90
17659;DHT22;8948;51.534;8.262;2024-01-30T10:51:15;12.80;64.30
17659;DHT22;8948;51.534;8.262;2024-01-30T10:56:17;12.90;63.80
17659;DHT22;8948;51.534;8.262;2024-01-30T11:01:20;13.00;64.10
17659;DHT22;8948;51.534;8.262;2024-01-30T11:06:24;13.10;63.50
17659;DHT22;8948;51.534;8.262;2024-01-30T11:11:25;13.10;63.20
17659;DHT22;8948;51.534;8.262;2024-01-30T11:16:31;13.20;64.10
17659;DHT22;8948;51.534;8.262;2024-01-30T11:21:32;13.40;62.50
17659;DHT22;8948;51.534;8.262;2024-01-30T11:26:33;13.40;63.10
17659;DHT22;8948;51.534;8.262;2024-01-30T11:31:34;13.40;62.60
17659;DHT22;8948;51.534;8.262;2024-01-30T11:36:35;13.30;62.80
17659;DHT22;8948;51.534;8.262;2024-01-30T11:41:38;13.20;63.60
17659;DHT22;8948;51.534;8.262;2024-01-30T11:46:40;13.10;63.80
17659;DHT22;8948;51.534;8.262;2024-01-30T11:51:40;13.10;63.60
17659;DHT22;8948;51.534;8.262;2024-01-30T11:56:42;13.00;63.80
17659;DHT22;8948;51.534;8.262;2024-01-30T12:01:46;12.90;64.30
17659;DHT22;8948;51.534;8.262;2024-01-30T12:06:51;12.90;64.60
17659;DHT22;8948;51.534;8.262;2024-01-30T12:11:52;13.00;65.00
17659;DHT22;8948;51.534;8.262;2024-01-30T12:16:52;13.00;64.00
17659;DHT22;8948;51.534;8.262;2024-01-30T12:21:57;13.00;63.10
17659;DHT22;8948;51.534;8.262;2024-01-30T12:26:59;13.10;63.30
17659;DHT22;8948;51.534;8.262;2024-01-30T12:32:00;13.00;63.40
17659;DHT22;8948;51.534;8.262;2024-01-30T12:37:01;13.10;63.40
17659;DHT22;8948;51.534;8.262;2024-01-30T12:42:01;13.10;63.00
17659;DHT22;8948;51.534;8.262;2024-01-30T12:47:03;13.30;63.10
17659;DHT22;8948;51.534;8.262;2024-01-30T12:52:04;13.60;62.60
17659;DHT22;8948;51.534;8.262;2024-01-30T12:57:05;13.70;62.40
17659;DHT22;8948;51.534;8.262;2024-01-30T13:02:07;13.40;62.20
17659;DHT22;8948;51.534;8.262;2024-01-30T13:07:07;13.30;64.10
17659;DHT22;8948;51.534;8.262;2024-01-30T13:12:08;13.20;63.60
17659;DHT22;8948;51.534;8.262;2024-01-30T13:17:09;13.20;64.10
17659;DHT22;8948;51.534;8.262;2024-01-30T13:22:09;13.20;64.00
17659;DHT22;8948;51.534;8.262;2024-01-30T13:27:10;13.30;64.30
17659;DHT22;8948;51.534;8.262;2024-01-30T13:32:10;13.40;64.20
17659;DHT22;8948;51.534;8.262;2024-01-30T13:37:11;13.50;64.40
17659;DHT22;8948;51.534;8.262;2024-01-30T13:42:12;13.40;64.20
17659;DHT22;8948;51.534;8.262;2024-01-30T13:47:13;13.50;64.30
17659;DHT22;8948;51.534;8.262;2024-01-30T13:52:13;13.60;64.60
17659;DHT22;8948;51.534;8.262;2024-01-30T13:57:14;13.60;64.30
17659;DHT22;8948;51.534;8.262;2024-01-30T14:02:14;13.80;64.00
17659;DHT22;8948;51.534;8.262;2024-01-30T14:07:15;13.90;64.00
17659;DHT22;8948;51.534;8.262;2024-01-30T14:12:15;13.90;64.50
17659;DHT22;8948;51.534;8.262;2024-01-30T14:17:16;13.70;64.70
17659;DHT22;8948;51.534;8.262;2024-01-30T14:22:17;13.70;64.80
17659;DHT22;8948;51.534;8.262;2024-01-30T14:27:17;13.50;64.40
17659;DHT22;8948;51.534;8.262;2024-01-30T14:32:18;13.30;64.90
17659;DHT22;8948;51.534;8.262;2024-01-30T14:37:20;13.20;65.20
17659;DHT22;8948;51.534;8.262;2024-01-30T14:42:21;13.20;65.70
17659;DHT22;8948;51.534;8.262;2024-01-30T14:47:21;13.10;65.90
17659;DHT22;8948;51.534;8.262;2024-01-30T14:52:22;13.00;66.50
17659;DHT22;8948;51.534;8.262;2024-01-30T14:57:24;12.90;66.80
17659;DHT22;8948;51.534;8.262;2024-01-30T15:02:25;12.80;67.30
17659;DHT22;8948;51.534;8.262;2024-01-30T15:07:25;12.80;67.50
17659;DHT22;8948;51.534;8.262;2024-01-30T15:12:26;12.70;67.70
17659;DHT22;8948;51.534;8.262;2024-01-30T15:17:26;12.70;67.90
17659;DHT22;8948;51.534;8.262;2024-01-30T15:22:27;12.70;68.30
17659;DHT22;8948;51.534;8.262;2024-01-30T15:27:28;12.60;68.10
17659;DHT22;8948;51.534;8.262;2024-01-30T15:32:28;12.60;68.20
17659;DHT22;8948;51.534;8.262;2024-01-30T15:37:29;12.60;68.30
17659;DHT22;8948;51.534;8.262;2024-01-30T15:42:29;12.60;68.00
17659;DHT22;8948;51.534;8.262;2024-01-30T15:47:30;12.50;68.80
17659;DHT22;8948;51.534;8.262;2024-01-30T15:52:31;12.50;69.00
17659;DHT22;8948;51.534;8.262;2024-01-30T15:57:31;12.40;69.30
17659;DHT22;8948;51.534;8.262;2024-01-30T16:02:32;12.40;69.00
17659;DHT22;8948;51.534;8.262;2024-01-30T16:07:32;12.30;69.40
17659;DHT22;8948;51.534;8.262;2024-01-30T16:12:34;12.20;69.40
17659;DHT22;8948;51.534;8.262;2024-01-30T16:17:34;12.20;68.80
17659;DHT22;8948;51.534;8.262;2024-01-30T16:22:35;12.20;69.50
17659;DHT22;8948;51.534;8.262;2024-01-30T16:27:36;12.10;69.50
17659;DHT22;8948;51.534;8.262;2024-01-30T16:32:36;12.10;69.90
17659;DHT22;8948;51.534;8.262;2024-01-30T16:37:37;12.00;69.40
17659;DHT22;8948;51.534;8.262;2024-01-30T16:42:38;12.00;69.10
17659;DHT22;8948;51.534;8.262;2024-01-30T16:47:38;12.00;68.60
17659;DHT22;8948;51.534;8.262;2024-01-30T16:52:39;11.90;68.90
17659;DHT22;8948;51.534;8.262;2024-01-30T16:57:39;11.90;68.80
17659;DHT22;8948;51.534;8.262;2024-01-30T17:02:40;11.90;68.50
17659;DHT22;8948;51.534;8.262;2024-01-30T17:07:41;12.00;68.60
17659;DHT22;8948;51.534;8.262;2024-01-30T17:12:41;11.90;68.40
17659;DHT22;8948;51.534;8.262;2024-01-30T17:17:42;11.90;68.30
17659;DHT22;8948;51.534;8.262;2024-01-30T17:22:42;11.90;68.20
17659;DHT22;8948;51.534;8.262;2024-01-30T17:27:43;11.90;68.20
17659;DHT22;8948;51.534;8.262;2024-01-30T17:32:44;11.90;68.40
17659;DHT22;8948;51.534;8.262;2024-01-30T17:37:45;11.90;69.00
17659;DHT22;8948;51.534;8.262;2024-01-30T17:42:46;11.80;69.30
17659;DHT22;8948;51.534;8.262;2024-01-30T17:47:46;11.70;68.70
17659;DHT22;8948;51.534;8.262;2024-01-30T17:52:47;11.60;68.30
17659;DHT22;8948;51.534;8.262;2024-01-30T17:57:49;11.40;67.30
17659;DHT22;8948;51.534;8.262;2024-01-30T18:02:50;11.20;65.20
17659;DHT22;8948;51.534;8.262;2024-01-30T18:07:52;11.10;63.40
17659;DHT22;8948;51.534;8.262;2024-01-30T18:12:53;11.00;62.40
17659;DHT22;8948;51.534;8.262;2024-01-30T18:17:56;11.00;62.30
17659;DHT22;8948;51.534;8.262;2024-01-30T18:22:57;10.90;61.60
17659;DHT22;8948;51.534;8.262;2024-01-30T18:27:57;10.80;61.60
17659;DHT22;8948;51.534;8.262;2024-01-30T18:32:58;10.80;61.60
17659;DHT22;8948;51.534;8.262;2024-01-30T18:37:58;10.70;61.20
17659;DHT22;8948;51.534;8.262;2024-01-30T18:42:59;10.60;60.70
17659;DHT22;8948;51.534;8.262;2024-01-30T18:48:04;10.60;61.10
17659;DHT22;8948;51.534;8.262;2024-01-30T18:53:05;10.40;61.00
17659;DHT22;8948;51.534;8.262;2024-01-30T18:58:06;10.40;61.40
17659;DHT22;8948;51.534;8.262;2024-01-30T19:03:07;10.30;61.60
17659;DHT22;8948;51.534;8.262;2024-01-30T19:08:07;10.20;61.40
17659;DHT22;8948;51.534;8.262;2024-01-30T19:13:08;10.20;61.50
17659;DHT22;8948;51.534;8.262;2024-01-30T19:18:09;10.20;61.40
17659;DHT22;8948;51.534;8.262;2024-01-30T19:23:09;10.20;60.30
17659;DHT22;8948;51.534;8.262;2024-01-30T19:28:10;10.20;59.80
17659;DHT22;8948;51.534;8.262;2024-01-30T19:33:12;10.20;60.20
17659;DHT22;8948;51.534;8.262;2024-01-30T19:38:13;10.20;60.70
17659;DHT22;8948;51.534;8.262;2024-01-30T19:43:14;10.20;60.70
17659;DHT22;8948;51.534;8.262;2024-01-30T19:48:15;10.20;61.40
17659;DHT22;8948;51.534;8.262;2024-01-30T19:53:17;10.00;63.30
17659;DHT22;8948;51.534;8.262;2024-01-30T19:58:18;10.00;64.10
17659;DHT22;8948;51.534;8.262;2024-01-30T20:03:19;9.90;64.80
17659;DHT22;8948;51.534;8.262;2024-01-30T20:08:19;9.90;65.20
17659;DHT22;8948;51.534;8.262;2024-01-30T20:13:20;9.90;65.30
17659;DHT22;8948;51.534;8.262;2024-01-30T20:18:20;9.80;64.90
17659;DHT22;8948;51.534;8.262;2024-01-30T20:23:22;9.80;64.50
17659;DHT22;8948;51.534;8.262;2024-01-30T20:28:23;9.80;64.70
17659;DHT22;8948;51.534;8.262;2024-01-30T20:33:25;9.70;64.50
17659;DHT22;8948;51.534;8.262;2024-01-30T20:38:26;9.70;64.70
17659;DHT22;8948;51.534;8.262;2024-01-30T20:43:26;9.70;65.00
17659;DHT22;8948;51.534;8.262;2024-01-30T20:48:27;9.70;65.30
17659;DHT22;8948;51.534;8.262;2024-01-30T20:53:29;9.70;65.20
17659;DHT22;8948;51.534;8.262;2024-01-30T20:58:30;9.60;65.20
17659;DHT22;8948;51.534;8.262;2024-01-30T21:03:30;9.50;65.50
17659;DHT22;8948;51.534;8.262;2024-01-30T21:08:32;9.50;65.70
17659;DHT22;8948;51.534;8.262;2024-01-30T21:13:32;9.30;65.80
17659;DHT22;8948;51.534;8.262;2024-01-30T21:18:33;9.30;66.10
17659;DHT22;8948;51.534;8.262;2024-01-30T21:23:35;9.20;66.40
17659;DHT22;8948;51.534;8.262;2024-01-30T21:28:36;9.20;66.00
17659;DHT22;8948;51.534;8.262;2024-01-30T21:33:36;9.20;66.60
17659;DHT22;8948;51.534;8.262;2024-01-30T21:38:37;9.10;66.90
17659;DHT22;8948;51.534;8.262;2024-01-30T21:43:37;9.20;66.70
17659;DHT22;8948;51.534;8.262;2024-01-30T21:48:38;9.10;67.50
17659;DHT22;8948;51.534;8.262;2024-01-30T21:53:39;9.10;67.80
17659;DHT22;8948;51.534;8.262;2024-01-30T21:58:39;9.00;67.70
17659;DHT22;8948;51.534;8.262;2024-01-30T22:03:40;9.10;68.40
17659;DHT22;8948;51.534;8.262;2024-01-30T22:08:42;9.00;68.30
17659;DHT22;8948;51.534;8.262;2024-01-30T22:13:43;8.90;69.00
17659;DHT22;8948;51.534;8.262;2024-01-30T22:18:43;8.90;69.10
17659;DHT22;8948;51.534;8.262;2024-01-30T22:23:44;8.90;69.40
17659;DHT22;8948;51.534;8.262;2024-01-30T22:28:46;8.80;69.70
17659;DHT22;8948;51.534;8.262;2024-01-30T22:33:46;8.80;69.80
17659;DHT22;8948;51.534;8.262;2024-01-30T22:38:47;8.90;70.10
17659;DHT22;8948;51.534;8.262;2024-01-30T22:43:48;8.90;69.80
17659;DHT22;8948;51.534;8.262;2024-01-30T22:48:48;8.80;70.00
17659;DHT22;8948;51.534;8.262;2024-01-30T22:53:49;8.90;70.00
17659;DHT22;8948;51.534;8.262;2024-01-30T22:58:49;8.90;69.90
17659;DHT22;8948;51.534;8.262;2024-01-30T23:03:50;8.80;70.60
17659;DHT22;8948;51.534;8.262;2024-01-30T23:08:51;8.80;71.10
17659;DHT22;8948;51.534;8.262;2024-01-30T23:13:51;8.70;71.50
17659;DHT22;8948;51.534;8.262;2024-01-30T23:18:52;8.70;72.20
17659;DHT22;8948;51.534;8.262;2024-01-30T23:23:53;8.70;72.10
17659;DHT22;8948;51.534;8.262;2024-01-30T23:28:53;8.70;72.00
17659;DHT22;8948;51.534;8.262;2024-01-30T23:33:54;8.70;72.50
17659;DHT22;8948;51.534;8.262;2024-01-30T23:38:54;8.70;73.40
17659;DHT22;8948;51.534;8.262;2024-01-30T23:43:55;8.60;74.80
17659;DHT22;8948;51.534;8.262;2024-01-30T23:48:56;8.50;75.40
17659;DHT22;8948;51.534;8.262;2024-01-30T23:53:57;8.40;76.00
17659;DHT22;8948;51.534;8.262;2024-01-30T23:58:57;8.30;76.30
